sensor_id;sensor_type;location;lat;lon;timestamp;temperature;humidity
39919;DHT22;25589;51.552;13.424;2022-07-05T00:02:04;20.40;68.10
39919;DHT22;25589;51.552;13.424;2022-07-05T00:04:30;20.40;68.40
39919;DHT22;25589;51.552;13.424;2022-07-05T00:06:55;20.40;68.50
39919;DHT22;25589;51.552;13.424;2022-07-05T00:09:40;20.30;68.60
39919;DHT22;25589;51.552;13.424;2022-07-05T00:12:05;20.20;68.90
39919;DHT22;25589;51.552;13.424;2022-07-05T00:14:31;20.20;71.00
39919;DHT22;25589;51.552;13.424;2022-07-05T00:16:57;20.00;71.60
39919;DHT22;25589;51.552;13.424;2022-07-05T00:19:22;19.80;72.30
39919;DHT22;25589;51.552;13.424;2022-07-05T00:21:48;19.80;72.80
39919;DHT22;25589;51.552;13.424;2022-07-05T00:24:14;19.80;72.50
39919;DHT22;25589;51.552;13.424;2022-07-05T00:26:39;19.80;72.50
39919;DHT22;25589;51.552;13.424;2022-07-05T00:29:05;19.80;72.60
39919;DHT22;25589;51.552;13.424;2022-07-05T00:31:30;19.80;72.50
39919;DHT22;25589;51.552;13.424;2022-07-05T00:33:56;19.80;72.50
39919;DHT22;25589;51.552;13.424;2022-07-05T00:36:21;19.70;73.00
39919;DHT22;25589;51.552;13.424;2022-07-05T00:38:47;19.60;73.30
39919;DHT22;25589;51.552;13.424;2022-07-05T00:41:12;19.50;73.60
39919;DHT22;25589;51.552;13.424;2022-07-05T00:43:54;19.40;73.90
39919;DHT22;25589;51.552;13.424;2022-07-05T00:46:20;19.40;74.30
39919;DHT22;25589;51.552;13.424;2022-07-05T00:48:47;19.30;74.60
39919;DHT22;25589;51.552;13.424;2022-07-05T00:51:12;19.30;75.30
39919;DHT22;25589;51.552;13.424;2022-07-05T00:53:38;19.30;76.60
39919;DHT22;25589;51.552;13.424;2022-07-05T00:56:04;19.20;76.70
39919;DHT22;25589;51.552;13.424;2022-07-05T00:58:32;19.30;76.50
39919;DHT22;25589;51.552;13.424;2022-07-05T01:00:58;19.20;76.30
39919;DHT22;25589;51.552;13.424;2022-07-05T01:03:23;19.20;76.40
39919;DHT22;25589;51.552;13.424;2022-07-05T01:05:49;19.10;76.30
39919;DHT22;25589;51.552;13.424;2022-07-05T01:08:15;19.10;77.00
39919;DHT22;25589;51.552;13.424;2022-07-05T01:10:41;19.00;77.60
39919;DHT22;25589;51.552;13.424;2022-07-05T01:13:08;18.90;78.70
39919;DHT22;25589;51.552;13.424;2022-07-05T01:15:34;18.90;79.20
39919;DHT22;25589;51.552;13.424;2022-07-05T01:18:00;18.80;79.50
39919;DHT22;25589;51.552;13.424;2022-07-05T01:20:26;18.70;79.80
39919;DHT22;25589;51.552;13.424;2022-07-05T01:22:55;18.60;80.10
39919;DHT22;25589;51.552;13.424;2022-07-05T01:25:26;18.50;80.40
39919;DHT22;25589;51.552;13.424;2022-07-05T01:27:53;18.50;80.60
39919;DHT22;25589;51.552;13.424;2022-07-05T01:30:19;18.50;80.80
39919;DHT22;25589;51.552;13.424;2022-07-05T01:32:45;18.50;82.20
39919;DHT22;25589;51.552;13.424;2022-07-05T01:35:12;18.50;81.70
39919;DHT22;25589;51.552;13.424;2022-07-05T01:37:39;18.30;82.30
39919;DHT22;25589;51.552;13.424;2022-07-05T01:40:05;18.30;82.80
39919;DHT22;25589;51.552;13.424;2022-07-05T01:42:31;18.20;83.10
39919;DHT22;25589;51.552;13.424;2022-07-05T01:44:57;18.20;83.40
39919;DHT22;25589;51.552;13.424;2022-07-05T01:47:23;18.20;83.90
39919;DHT22;25589;51.552;13.424;2022-07-05T01:49:53;18.30;83.90
39919;DHT22;25589;51.552;13.424;2022-07-05T01:52:21;18.30;83.70
39919;DHT22;25589;51.552;13.424;2022-07-05T01:54:48;18.20;83.60
39919;DHT22;25589;51.552;13.424;2022-07-05T01:57:13;18.20;83.80
39919;DHT22;25589;51.552;13.424;2022-07-05T01:59:39;18.20;84.00
39919;DHT22;25589;51.552;13.424;2022-07-05T02:02:06;18.10;84.00
39919;DHT22;25589;51.552;13.424;2022-07-05T02:04:34;18.00;84.10
39919;DHT22;25589;51.552;13.424;2022-07-05T02:07:05;18.00;84.40
39919;DHT22;25589;51.552;13.424;2022-07-05T02:09:31;17.90;84.50
39919;DHT22;25589;51.552;13.424;2022-07-05T02:11:56;17.90;84.70
39919;DHT22;25589;51.552;13.424;2022-07-05T02:14:23;17.90;84.70
39919;DHT22;25589;51.552;13.424;2022-07-05T02:16:48;17.90;84.90
39919;DHT22;25589;51.552;13.424;2022-07-05T02:19:16;17.90;85.10
39919;DHT22;25589;51.552;13.424;2022-07-05T02:21:43;17.90;85.70
39919;DHT22;25589;51.552;13.424;2022-07-05T02:24:14;17.90;86.30
39919;DHT22;25589;51.552;13.424;2022-07-05T02:27:02;17.80;85.60
39919;DHT22;25589;51.552;13.424;2022-07-05T02:29:27;17.80;86.00
39919;DHT22;25589;51.552;13.424;2022-07-05T02:31:54;17.80;86.30
39919;DHT22;25589;51.552;13.424;2022-07-05T02:34:20;17.80;86.80
39919;DHT22;25589;51.552;13.424;2022-07-05T02:36:45;17.70;87.20
39919;DHT22;25589;51.552;13.424;2022-07-05T02:39:12;17.60;88.10
39919;DHT22;25589;51.552;13.424;2022-07-05T02:41:38;17.50;89.50
39919;DHT22;25589;51.552;13.424;2022-07-05T02:44:06;17.30;90.10
39919;DHT22;25589;51.552;13.424;2022-07-05T02:46:32;17.30;90.50
39919;DHT22;25589;51.552;13.424;2022-07-05T02:49:03;17.40;90.50
39919;DHT22;25589;51.552;13.424;2022-07-05T02:51:31;17.40;90.50
39919;DHT22;25589;51.552;13.424;2022-07-05T02:53:59;17.40;90.80
39919;DHT22;25589;51.552;13.424;2022-07-05T02:56:25;17.30;90.90
39919;DHT22;25589;51.552;13.424;2022-07-05T02:58:50;17.30;91.10
39919;DHT22;25589;51.552;13.424;2022-07-05T03:01:17;17.30;91.40
39919;DHT22;25589;51.552;13.424;2022-07-05T03:03:43;17.30;91.70
39919;DHT22;25589;51.552;13.424;2022-07-05T03:06:09;17.30;91.90
39919;DHT22;25589;51.552;13.424;2022-07-05T03:08:36;17.30;92.30
39919;DHT22;25589;51.552;13.424;2022-07-05T03:11:02;17.30;92.70
39919;DHT22;25589;51.552;13.424;2022-07-05T03:13:29;17.30;93.00
39919;DHT22;25589;51.552;13.424;2022-07-05T03:15:54;17.20;93.40
39919;DHT22;25589;51.552;13.424;2022-07-05T03:18:22;17.20;93.80
39919;DHT22;25589;51.552;13.424;2022-07-05T03:20:48;17.10;94.20
39919;DHT22;25589;51.552;13.424;2022-07-05T03:23:16;17.10;94.60
39919;DHT22;25589;51.552;13.424;2022-07-05T03:25:48;17.00;95.00
39919;DHT22;25589;51.552;13.424;2022-07-05T03:28:13;17.00;95.30
39919;DHT22;25589;51.552;13.424;2022-07-05T03:30:41;17.00;95.40
39919;DHT22;25589;51.552;13.424;2022-07-05T03:33:07;17.00;95.60
39919;DHT22;25589;51.552;13.424;2022-07-05T03:35:36;16.90;95.80
39919;DHT22;25589;51.552;13.424;2022-07-05T03:38:01;16.90;96.00
39919;DHT22;25589;51.552;13.424;2022-07-05T03:40:27;16.90;96.20
39919;DHT22;25589;51.552;13.424;2022-07-05T03:42:53;17.00;96.20
39919;DHT22;25589;51.552;13.424;2022-07-05T03:45:19;17.00;96.30
39919;DHT22;25589;51.552;13.424;2022-07-05T03:47:45;17.00;96.40
39919;DHT22;25589;51.552;13.424;2022-07-05T03:50:13;16.80;97.00
39919;DHT22;25589;51.552;13.424;2022-07-05T03:52:41;16.70;97.80
39919;DHT22;25589;51.552;13.424;2022-07-05T03:55:07;16.70;98.20
39919;DHT22;25589;51.552;13.424;2022-07-05T03:57:33;16.70;98.50
39919;DHT22;25589;51.552;13.424;2022-07-05T04:00:00;16.80;98.90
39919;DHT22;25589;51.552;13.424;2022-07-05T04:02:25;16.70;99.20
39919;DHT22;25589;51.552;13.424;2022-07-05T04:04:52;16.70;99.40
39919;DHT22;25589;51.552;13.424;2022-07-05T04:07:18;16.70;99.60
39919;DHT22;25589;51.552;13.424;2022-07-05T04:09:44;16.70;99.70
39919;DHT22;25589;51.552;13.424;2022-07-05T04:12:10;16.80;99.90
39919;DHT22;25589;51.552;13.424;2022-07-05T04:14:37;16.80;99.90
39919;DHT22;25589;51.552;13.424;2022-07-05T04:17:03;16.90;99.90
39919;DHT22;25589;51.552;13.424;2022-07-05T04:19:29;17.00;99.90
39919;DHT22;25589;51.552;13.424;2022-07-05T04:21:56;17.00;99.90
39919;DHT22;25589;51.552;13.424;2022-07-05T04:24:21;17.10;99.90
39919;DHT22;25589;51.552;13.424;2022-07-05T04:26:47;17.20;99.90
39919;DHT22;25589;51.552;13.424;2022-07-05T04:29:13;17.10;99.90
39919;DHT22;25589;51.552;13.424;2022-07-05T04:31:39;17.10;99.90
39919;DHT22;25589;51.552;13.424;2022-07-05T04:34:05;17.20;99.90
39919;DHT22;25589;51.552;13.424;2022-07-05T04:36:33;17.30;99.90
39919;DHT22;25589;51.552;13.424;2022-07-05T04:38:59;17.30;99.90
39919;DHT22;25589;51.552;13.424;2022-07-05T04:41:26;17.40;99.90
39919;DHT22;25589;51.552;13.424;2022-07-05T04:43:53;17.40;99.90
39919;DHT22;25589;51.552;13.424;2022-07-05T04:46:19;17.40;99.90
39919;DHT22;25589;51.552;13.424;2022-07-05T04:48:47;17.40;99.90
39919;DHT22;25589;51.552;13.424;2022-07-05T04:51:14;17.40;99.90
39919;DHT22;25589;51.552;13.424;2022-07-05T04:53:41;17.30;99.90
39919;DHT22;25589;51.552;13.424;2022-07-05T04:56:07;17.30;99.90
39919;DHT22;25589;51.552;13.424;2022-07-05T04:58:33;17.30;99.90
39919;DHT22;25589;51.552;13.424;2022-07-05T05:00:58;17.30;99.90
39919;DHT22;25589;51.552;13.424;2022-07-05T05:03:24;17.40;99.90
39919;DHT22;25589;51.552;13.424;2022-07-05T05:05:49;17.40;99.90
39919;DHT22;25589;51.552;13.424;2022-07-05T05:08:15;17.50;99.90
39919;DHT22;25589;51.552;13.424;2022-07-05T05:10:41;17.60;99.90
39919;DHT22;25589;51.552;13.424;2022-07-05T05:13:06;17.70;99.90
39919;DHT22;25589;51.552;13.424;2022-07-05T05:15:32;17.80;99.90
39919;DHT22;25589;51.552;13.424;2022-07-05T05:17:57;17.80;99.90
39919;DHT22;25589;51.552;13.424;2022-07-05T05:20:23;17.90;99.90
39919;DHT22;25589;51.552;13.424;2022-07-05T05:22:49;17.90;99.90
39919;DHT22;25589;51.552;13.424;2022-07-05T05:25:15;17.90;99.90
39919;DHT22;25589;51.552;13.424;2022-07-05T05:27:45;18.00;99.90
39919;DHT22;25589;51.552;13.424;2022-07-05T05:30:11;18.00;99.90
39919;DHT22;25589;51.552;13.424;2022-07-05T05:32:37;18.10;99.90
39919;DHT22;25589;51.552;13.424;2022-07-05T05:35:03;18.00;99.90
39919;DHT22;25589;51.552;13.424;2022-07-05T05:37:29;18.00;99.90
39919;DHT22;25589;51.552;13.424;2022-07-05T05:39:54;18.00;99.90
39919;DHT22;25589;51.552;13.424;2022-07-05T05:42:20;18.20;99.90
39919;DHT22;25589;51.552;13.424;2022-07-05T05:44:46;18.20;99.90
39919;DHT22;25589;51.552;13.424;2022-07-05T05:47:11;18.30;99.90
39919;DHT22;25589;51.552;13.424;2022-07-05T05:49:37;18.40;99.90
39919;DHT22;25589;51.552;13.424;2022-07-05T05:52:02;18.50;99.90
39919;DHT22;25589;51.552;13.424;2022-07-05T05:54:28;18.60;99.50
39919;DHT22;25589;51.552;13.424;2022-07-05T05:56:53;18.60;99.40
39919;DHT22;25589;51.552;13.424;2022-07-05T05:59:19;18.70;99.70
39919;DHT22;25589;51.552;13.424;2022-07-05T06:01:45;18.70;99.40
39919;DHT22;25589;51.552;13.424;2022-07-05T06:04:10;18.80;99.70
39919;DHT22;25589;51.552;13.424;2022-07-05T06:06:36;18.80;99.70
39919;DHT22;25589;51.552;13.424;2022-07-05T06:09:02;18.90;99.90
39919;DHT22;25589;51.552;13.424;2022-07-05T06:11:27;19.00;99.90
39919;DHT22;25589;51.552;13.424;2022-07-05T06:13:53;19.10;99.80
39919;DHT22;25589;51.552;13.424;2022-07-05T06:16:18;19.10;99.80
39919;DHT22;25589;51.552;13.424;2022-07-05T06:18:44;19.20;99.50
39919;DHT22;25589;51.552;13.424;2022-07-05T06:21:09;19.30;99.80
39919;DHT22;25589;51.552;13.424;2022-07-05T06:23:35;19.30;99.60
39919;DHT22;25589;51.552;13.424;2022-07-05T06:26:01;19.40;99.50
39919;DHT22;25589;51.552;13.424;2022-07-05T06:28:26;19.50;99.50
39919;DHT22;25589;51.552;13.424;2022-07-05T06:30:52;19.60;99.20
39919;DHT22;25589;51.552;13.424;2022-07-05T06:33:19;19.80;99.00
39919;DHT22;25589;51.552;13.424;2022-07-05T06:35:45;19.90;98.30
39919;DHT22;25589;51.552;13.424;2022-07-05T06:38:10;19.90;98.20
39919;DHT22;25589;51.552;13.424;2022-07-05T06:40:37;20.00;98.10
39919;DHT22;25589;51.552;13.424;2022-07-05T06:43:06;20.10;98.00
39919;DHT22;25589;51.552;13.424;2022-07-05T06:45:39;20.20;97.90
39919;DHT22;25589;51.552;13.424;2022-07-05T06:48:07;20.30;97.30
39919;DHT22;25589;51.552;13.424;2022-07-05T06:50:35;20.40;96.90
39919;DHT22;25589;51.552;13.424;2022-07-05T06:53:04;20.50;96.80
39919;DHT22;25589;51.552;13.424;2022-07-05T06:55:30;20.60;96.40
39919;DHT22;25589;51.552;13.424;2022-07-05T06:58:00;20.70;96.20
39919;DHT22;25589;51.552;13.424;2022-07-05T07:00:26;20.80;96.10
39919;DHT22;25589;51.552;13.424;2022-07-05T07:02:52;20.90;96.10
39919;DHT22;25589;51.552;13.424;2022-07-05T07:05:18;20.90;96.00
39919;DHT22;25589;51.552;13.424;2022-07-05T07:07:44;20.90;95.80
39919;DHT22;25589;51.552;13.424;2022-07-05T07:10:28;21.00;95.40
39919;DHT22;25589;51.552;13.424;2022-07-05T07:12:54;21.10;95.10
39919;DHT22;25589;51.552;13.424;2022-07-05T07:15:19;21.20;95.10
39919;DHT22;25589;51.552;13.424;2022-07-05T07:17:45;21.30;94.70
39919;DHT22;25589;51.552;13.424;2022-07-05T07:20:11;21.40;94.70
39919;DHT22;25589;51.552;13.424;2022-07-05T07:22:36;21.50;94.20
39919;DHT22;25589;51.552;13.424;2022-07-05T07:25:02;21.60;94.00
39919;DHT22;25589;51.552;13.424;2022-07-05T07:27:31;21.70;93.60
39919;DHT22;25589;51.552;13.424;2022-07-05T07:29:56;21.80;92.70
39919;DHT22;25589;51.552;13.424;2022-07-05T07:32:22;21.90;92.90
39919;DHT22;25589;51.552;13.424;2022-07-05T07:34:48;22.00;91.90
39919;DHT22;25589;51.552;13.424;2022-07-05T07:37:13;22.10;91.60
39919;DHT22;25589;51.552;13.424;2022-07-05T07:39:39;22.20;91.10
39919;DHT22;25589;51.552;13.424;2022-07-05T07:42:06;22.30;91.00
39919;DHT22;25589;51.552;13.424;2022-07-05T07:44:32;22.40;87.90
39919;DHT22;25589;51.552;13.424;2022-07-05T07:46:57;22.50;89.10
39919;DHT22;25589;51.552;13.424;2022-07-05T07:49:23;22.60;90.30
39919;DHT22;25589;51.552;13.424;2022-07-05T07:51:49;22.70;87.80
39919;DHT22;25589;51.552;13.424;2022-07-05T07:54:15;22.80;85.00
39919;DHT22;25589;51.552;13.424;2022-07-05T07:56:41;22.90;85.90
39919;DHT22;25589;51.552;13.424;2022-07-05T07:59:07;23.00;82.90
39919;DHT22;25589;51.552;13.424;2022-07-05T08:01:32;23.10;82.00
39919;DHT22;25589;51.552;13.424;2022-07-05T08:03:58;23.20;80.90
39919;DHT22;25589;51.552;13.424;2022-07-05T08:06:23;23.30;80.70
39919;DHT22;25589;51.552;13.424;2022-07-05T08:08:49;23.40;79.70
39919;DHT22;25589;51.552;13.424;2022-07-05T08:11:15;23.50;78.30
39919;DHT22;25589;51.552;13.424;2022-07-05T08:13:41;23.60;78.00
39919;DHT22;25589;51.552;13.424;2022-07-05T08:16:08;23.60;74.90
39919;DHT22;25589;51.552;13.424;2022-07-05T08:18:34;23.80;77.60
39919;DHT22;25589;51.552;13.424;2022-07-05T08:21:19;23.90;79.40
39919;DHT22;25589;51.552;13.424;2022-07-05T08:23:58;23.90;78.60
39919;DHT22;25589;51.552;13.424;2022-07-05T08:26:24;24.00;77.50
39919;DHT22;25589;51.552;13.424;2022-07-05T08:28:49;24.10;78.40
39919;DHT22;25589;51.552;13.424;2022-07-05T08:31:15;24.20;77.20
39919;DHT22;25589;51.552;13.424;2022-07-05T08:33:41;24.30;76.90
39919;DHT22;25589;51.552;13.424;2022-07-05T08:36:06;24.40;76.70
39919;DHT22;25589;51.552;13.424;2022-07-05T08:38:33;24.50;76.60
39919;DHT22;25589;51.552;13.424;2022-07-05T08:40:59;24.60;76.00
39919;DHT22;25589;51.552;13.424;2022-07-05T08:43:25;24.60;73.80
39919;DHT22;25589;51.552;13.424;2022-07-05T08:45:53;24.70;75.30
39919;DHT22;25589;51.552;13.424;2022-07-05T08:48:20;24.80;74.00
39919;DHT22;25589;51.552;13.424;2022-07-05T08:50:47;25.00;72.80
39919;DHT22;25589;51.552;13.424;2022-07-05T08:53:15;25.10;70.70
39919;DHT22;25589;51.552;13.424;2022-07-05T08:55:42;25.20;69.40
39919;DHT22;25589;51.552;13.424;2022-07-05T08:58:08;25.20;70.60
39919;DHT22;25589;51.552;13.424;2022-07-05T09:00:34;25.40;69.30
39919;DHT22;25589;51.552;13.424;2022-07-05T09:03:01;25.40;69.40
39919;DHT22;25589;51.552;13.424;2022-07-05T09:05:27;25.50;70.10
39919;DHT22;25589;51.552;13.424;2022-07-05T09:08:01;25.50;69.80
39919;DHT22;25589;51.552;13.424;2022-07-05T09:10:29;25.50;68.60
39919;DHT22;25589;51.552;13.424;2022-07-05T09:12:56;25.60;68.50
39919;DHT22;25589;51.552;13.424;2022-07-05T09:15:22;25.70;68.10
39919;DHT22;25589;51.552;13.424;2022-07-05T09:17:48;25.70;66.80
39919;DHT22;25589;51.552;13.424;2022-07-05T09:20:16;25.80;66.50
39919;DHT22;25589;51.552;13.424;2022-07-05T09:25:24;26.00;66.30
39919;DHT22;25589;51.552;13.424;2022-07-05T09:28:03;25.90;65.40
39919;DHT22;25589;51.552;13.424;2022-07-05T09:35:53;26.50;62.40
39919;DHT22;25589;51.552;13.424;2022-07-05T09:38:23;26.70;61.20
39919;DHT22;25589;51.552;13.424;2022-07-05T09:40:52;26.80;59.60
39919;DHT22;25589;51.552;13.424;2022-07-05T09:43:19;27.00;59.30
39919;DHT22;25589;51.552;13.424;2022-07-05T09:46:05;27.30;58.20
39919;DHT22;25589;51.552;13.424;2022-07-05T09:48:31;27.50;57.00
39919;DHT22;25589;51.552;13.424;2022-07-05T09:51:08;27.20;57.20
39919;DHT22;25589;51.552;13.424;2022-07-05T09:53:52;27.30;57.70
39919;DHT22;25589;51.552;13.424;2022-07-05T09:56:18;27.20;57.60
39919;DHT22;25589;51.552;13.424;2022-07-05T09:58:44;27.10;58.40
39919;DHT22;25589;51.552;13.424;2022-07-05T10:01:26;27.20;58.50
39919;DHT22;25589;51.552;13.424;2022-07-05T10:06:20;27.60;57.50
39919;DHT22;25589;51.552;13.424;2022-07-05T10:08:47;28.00;56.60
39919;DHT22;25589;51.552;13.424;2022-07-05T10:11:19;28.40;55.60
39919;DHT22;25589;51.552;13.424;2022-07-05T10:13:49;28.50;54.80
39919;DHT22;25589;51.552;13.424;2022-07-05T10:16:19;28.40;53.40
39919;DHT22;25589;51.552;13.424;2022-07-05T10:18:47;28.40;54.20
39919;DHT22;25589;51.552;13.424;2022-07-05T10:21:14;28.50;53.60
39919;DHT22;25589;51.552;13.424;2022-07-05T10:23:48;28.50;53.20
39919;DHT22;25589;51.552;13.424;2022-07-05T10:26:15;28.70;53.20
39919;DHT22;25589;51.552;13.424;2022-07-05T10:28:46;28.70;53.40
39919;DHT22;25589;51.552;13.424;2022-07-05T10:31:15;28.10;54.10
39919;DHT22;25589;51.552;13.424;2022-07-05T10:33:42;27.70;55.40
39919;DHT22;25589;51.552;13.424;2022-07-05T10:36:10;27.50;55.60
39919;DHT22;25589;51.552;13.424;2022-07-05T10:38:38;27.40;55.60
39919;DHT22;25589;51.552;13.424;2022-07-05T10:41:06;27.50;55.70
39919;DHT22;25589;51.552;13.424;2022-07-05T10:43:32;27.80;55.20
39919;DHT22;25589;51.552;13.424;2022-07-05T10:45:58;28.20;55.20
39919;DHT22;25589;51.552;13.424;2022-07-05T10:48:25;28.50;54.70
39919;DHT22;25589;51.552;13.424;2022-07-05T10:50:52;28.50;53.20
39919;DHT22;25589;51.552;13.424;2022-07-05T10:53:26;28.70;53.50
39919;DHT22;25589;51.552;13.424;2022-07-05T10:55:58;28.70;53.70
39919;DHT22;25589;51.552;13.424;2022-07-05T10:58:31;28.50;54.00
39919;DHT22;25589;51.552;13.424;2022-07-05T11:03:44;28.30;53.20
39919;DHT22;25589;51.552;13.424;2022-07-05T11:06:21;28.30;51.90
39919;DHT22;25589;51.552;13.424;2022-07-05T11:11:36;29.00;52.20
39919;DHT22;25589;51.552;13.424;2022-07-05T11:14:04;28.80;51.40
39919;DHT22;25589;51.552;13.424;2022-07-05T11:16:34;28.30;51.40
39919;DHT22;25589;51.552;13.424;2022-07-05T11:19:11;28.20;52.50
39919;DHT22;25589;51.552;13.424;2022-07-05T11:21:39;28.10;52.10
39919;DHT22;25589;51.552;13.424;2022-07-05T11:24:24;28.40;52.10
39919;DHT22;25589;51.552;13.424;2022-07-05T11:26:51;29.00;49.90
39919;DHT22;25589;51.552;13.424;2022-07-05T11:29:48;29.30;49.40
39919;DHT22;25589;51.552;13.424;2022-07-05T11:35:15;30.30;48.20
39919;DHT22;25589;51.552;13.424;2022-07-05T11:38:03;30.00;47.30
39919;DHT22;25589;51.552;13.424;2022-07-05T11:40:33;29.50;47.50
39919;DHT22;25589;51.552;13.424;2022-07-05T11:42:59;29.20;48.30
39919;DHT22;25589;51.552;13.424;2022-07-05T11:45:27;28.80;48.90
39919;DHT22;25589;51.552;13.424;2022-07-05T11:47:54;28.30;50.70
39919;DHT22;25589;51.552;13.424;2022-07-05T11:50:34;28.10;51.30
39919;DHT22;25589;51.552;13.424;2022-07-05T11:53:03;28.00;52.20
39919;DHT22;25589;51.552;13.424;2022-07-05T11:55:29;28.40;52.00
39919;DHT22;25589;51.552;13.424;2022-07-05T11:57:56;28.60;51.10
39919;DHT22;25589;51.552;13.424;2022-07-05T12:00:32;28.60;50.60
39919;DHT22;25589;51.552;13.424;2022-07-05T12:02:59;28.70;50.60
39919;DHT22;25589;51.552;13.424;2022-07-05T12:05:29;29.00;49.70
39919;DHT22;25589;51.552;13.424;2022-07-05T12:07:55;29.40;48.90
39919;DHT22;25589;51.552;13.424;2022-07-05T12:10:20;29.70;48.80
39919;DHT22;25589;51.552;13.424;2022-07-05T12:13:06;29.80;48.50
39919;DHT22;25589;51.552;13.424;2022-07-05T12:15:32;29.60;48.00
39919;DHT22;25589;51.552;13.424;2022-07-05T12:18:00;29.50;48.70
39919;DHT22;25589;51.552;13.424;2022-07-05T12:20:29;29.80;48.50
39919;DHT22;25589;51.552;13.424;2022-07-05T12:22:54;30.10;49.30
39919;DHT22;25589;51.552;13.424;2022-07-05T12:25:22;29.90;48.60
39919;DHT22;25589;51.552;13.424;2022-07-05T12:27:50;29.70;48.90
39919;DHT22;25589;51.552;13.424;2022-07-05T12:30:17;29.80;49.10
39919;DHT22;25589;51.552;13.424;2022-07-05T12:33:06;29.90;49.00
39919;DHT22;25589;51.552;13.424;2022-07-05T12:35:40;30.30;47.40
39919;DHT22;25589;51.552;13.424;2022-07-05T12:38:08;30.00;47.10
39919;DHT22;25589;51.552;13.424;2022-07-05T12:40:38;29.80;46.70
39919;DHT22;25589;51.552;13.424;2022-07-05T12:43:09;29.90;46.90
39919;DHT22;25589;51.552;13.424;2022-07-05T12:45:35;29.80;46.70
39919;DHT22;25589;51.552;13.424;2022-07-05T12:48:03;29.70;47.10
39919;DHT22;25589;51.552;13.424;2022-07-05T12:50:52;29.60;47.50
39919;DHT22;25589;51.552;13.424;2022-07-05T12:53:18;29.40;46.50
39919;DHT22;25589;51.552;13.424;2022-07-05T12:56:05;29.30;48.30
39919;DHT22;25589;51.552;13.424;2022-07-05T13:01:27;29.60;48.50
39919;DHT22;25589;51.552;13.424;2022-07-05T13:04:13;29.40;48.80
39919;DHT22;25589;51.552;13.424;2022-07-05T13:06:43;29.30;49.00
39919;DHT22;25589;51.552;13.424;2022-07-05T13:09:11;29.50;48.40
39919;DHT22;25589;51.552;13.424;2022-07-05T13:11:38;29.60;48.00
39919;DHT22;25589;51.552;13.424;2022-07-05T13:14:03;29.80;48.10
39919;DHT22;25589;51.552;13.424;2022-07-05T13:16:29;29.80;47.70
39919;DHT22;25589;51.552;13.424;2022-07-05T13:18:54;29.90;47.30
39919;DHT22;25589;51.552;13.424;2022-07-05T13:21:20;30.00;47.00
39919;DHT22;25589;51.552;13.424;2022-07-05T13:23:46;30.00;47.10
39919;DHT22;25589;51.552;13.424;2022-07-05T13:26:11;30.40;46.20
39919;DHT22;25589;51.552;13.424;2022-07-05T13:28:37;30.70;45.80
39919;DHT22;25589;51.552;13.424;2022-07-05T13:31:02;31.20;45.30
39919;DHT22;25589;51.552;13.424;2022-07-05T13:33:28;31.00;44.70
39919;DHT22;25589;51.552;13.424;2022-07-05T13:35:54;30.80;44.90
39919;DHT22;25589;51.552;13.424;2022-07-05T13:38:19;30.70;45.30
39919;DHT22;25589;51.552;13.424;2022-07-05T13:40:45;30.40;45.70
39919;DHT22;25589;51.552;13.424;2022-07-05T13:43:10;30.40;45.70
39919;DHT22;25589;51.552;13.424;2022-07-05T13:45:36;30.30;46.20
39919;DHT22;25589;51.552;13.424;2022-07-05T13:48:01;30.20;46.30
39919;DHT22;25589;51.552;13.424;2022-07-05T13:50:27;30.10;46.20
39919;DHT22;25589;51.552;13.424;2022-07-05T13:53:01;29.80;46.20
39919;DHT22;25589;51.552;13.424;2022-07-05T13:55:27;29.80;45.30
39919;DHT22;25589;51.552;13.424;2022-07-05T13:57:53;29.80;44.90
39919;DHT22;25589;51.552;13.424;2022-07-05T14:00:19;29.80;45.10
39919;DHT22;25589;51.552;13.424;2022-07-05T14:02:45;29.90;45.10
39919;DHT22;25589;51.552;13.424;2022-07-05T14:05:11;29.90;45.40
39919;DHT22;25589;51.552;13.424;2022-07-05T14:07:37;29.80;45.20
39919;DHT22;25589;51.552;13.424;2022-07-05T14:10:04;29.70;45.50
39919;DHT22;25589;51.552;13.424;2022-07-05T14:12:29;29.80;46.20
39919;DHT22;25589;51.552;13.424;2022-07-05T14:14:55;30.10;45.20
39919;DHT22;25589;51.552;13.424;2022-07-05T14:17:20;30.30;44.20
39919;DHT22;25589;51.552;13.424;2022-07-05T14:19:46;30.10;43.70
39919;DHT22;25589;51.552;13.424;2022-07-05T14:22:12;30.10;44.10
39919;DHT22;25589;51.552;13.424;2022-07-05T14:24:37;30.00;44.30
39919;DHT22;25589;51.552;13.424;2022-07-05T14:27:03;29.80;44.60
39919;DHT22;25589;51.552;13.424;2022-07-05T14:29:33;29.50;44.30
39919;DHT22;25589;51.552;13.424;2022-07-05T14:31:58;29.40;45.10
39919;DHT22;25589;51.552;13.424;2022-07-05T14:34:24;29.40;44.80
39919;DHT22;25589;51.552;13.424;2022-07-05T14:36:49;29.70;44.40
39919;DHT22;25589;51.552;13.424;2022-07-05T14:39:15;29.90;43.90
39919;DHT22;25589;51.552;13.424;2022-07-05T14:41:40;30.00;43.80
39919;DHT22;25589;51.552;13.424;2022-07-05T14:44:07;29.80;44.30
39919;DHT22;25589;51.552;13.424;2022-07-05T14:46:32;29.50;44.90
39919;DHT22;25589;51.552;13.424;2022-07-05T14:48:58;29.30;45.60
39919;DHT22;25589;51.552;13.424;2022-07-05T14:51:24;29.10;45.80
39919;DHT22;25589;51.552;13.424;2022-07-05T14:53:49;29.00;46.00
39919;DHT22;25589;51.552;13.424;2022-07-05T14:56:15;29.00;46.20
39919;DHT22;25589;51.552;13.424;2022-07-05T14:58:41;29.20;46.20
39919;DHT22;25589;51.552;13.424;2022-07-05T15:01:06;29.60;45.60
39919;DHT22;25589;51.552;13.424;2022-07-05T15:03:32;29.90;44.80
39919;DHT22;25589;51.552;13.424;2022-07-05T15:05:58;30.30;44.00
39919;DHT22;25589;51.552;13.424;2022-07-05T15:08:23;30.50;43.70
39919;DHT22;25589;51.552;13.424;2022-07-05T15:10:52;30.90;43.30
39919;DHT22;25589;51.552;13.424;2022-07-05T15:13:17;31.00;43.40
39919;DHT22;25589;51.552;13.424;2022-07-05T15:15:43;30.70;43.70
39919;DHT22;25589;51.552;13.424;2022-07-05T15:18:09;30.30;44.60
39919;DHT22;25589;51.552;13.424;2022-07-05T15:20:34;30.10;45.00
39919;DHT22;25589;51.552;13.424;2022-07-05T15:23:00;29.90;45.20
39919;DHT22;25589;51.552;13.424;2022-07-05T15:25:25;29.80;45.20
39919;DHT22;25589;51.552;13.424;2022-07-05T15:27:51;29.70;45.70
39919;DHT22;25589;51.552;13.424;2022-07-05T15:30:17;29.60;45.80
39919;DHT22;25589;51.552;13.424;2022-07-05T15:32:43;29.40;45.80
39919;DHT22;25589;51.552;13.424;2022-07-05T15:35:09;29.30;45.70
39919;DHT22;25589;51.552;13.424;2022-07-05T15:37:35;29.30;46.10
39919;DHT22;25589;51.552;13.424;2022-07-05T15:40:01;29.20;46.20